Time;durP1;ratioP1;P1;durP2;ratioP2;P2;SDS_P1;SDS_P2;PMS_P1;PMS_P2;Temp;Humidity;BMP_temperature;BMP_pressure;BME280_temperature;BME280_humidity;BME280_pressure;Samples;Min_cycle;Max_cycle;Signal;HPM_P1;HPM_P2
2023/03/08 00:00:15;;;;;;;1428.13;545.47;;;1.80;99.90;;;;;;4990637;28;20054;-92
2023/03/08 00:02:41;;;;;;;1999.90;999.90;;;;;;;;;;4990122;28;20205;-90
2023/03/08 00:05:08;;;;;;;1999.90;999.90;;;2.30;99.90;;;;;;4973541;28;20041;-91
2023/03/08 00:07:33;;;;;;;1999.90;999.90;;;0.90;99.90;;;;;;4991952;28;20486;-91
2023/03/08 00:09:59;;;;;;;1999.90;999.90;;;3.30;99.90;;;;;;4993671;28;20042;-92
2023/03/08 00:12:25;;;;;;;1999.90;999.90;;;4.50;99.90;;;;;;4994593;28;20437;-91
2023/03/08 00:14:51;;;;;;;1999.90;999.90;;;;;;;;;;4960264;28;20050;-92
2023/03/08 00:17:17;;;;;;;1999.90;999.90;;;2.20;99.90;;;;;;4993143;28;20062;-92
2023/03/08 00:19:43;;;;;;;1999.90;999.90;;;4.50;99.90;;;;;;4958985;28;20144;-91
2023/03/08 00:22:10;;;;;;;1999.90;999.90;;;2.30;99.90;;;;;;4992949;28;20113;-92
2023/03/08 00:24:36;;;;;;;1999.90;999.90;;;2.20;99.90;;;;;;4993485;28;20082;-92
2023/03/08 00:27:03;;;;;;;1999.90;999.90;;;;;;;;;;4992813;28;20050;-91
2023/03/08 00:29:30;;;;;;;1999.90;999.90;;;2.10;99.90;;;;;;4993210;28;20097;-92
2023/03/08 00:31:55;;;;;;;1999.90;999.90;;;2.10;99.90;;;;;;4995078;28;20379;-92
2023/03/08 00:34:21;;;;;;;1999.90;999.90;;;2.00;99.90;;;;;;4974237;28;20042;-93
2023/03/08 00:36:47;;;;;;;1999.90;269.07;;;3.40;99.90;;;;;;4992580;28;20046;-92
2023/03/08 00:39:15;;;;;;;1999.90;999.90;;;;;;;;;;4975754;28;20479;-93
2023/03/08 00:41:41;;;;;;;1999.90;999.90;;;;;;;;;;4992738;28;20117;-93
2023/03/08 00:44:07;;;;;;;1999.90;999.90;;;;;;;;;;4995214;28;20050;-92
2023/03/08 00:46:33;;;;;;;1999.90;999.90;;;;;;;;;;4993287;28;20077;-93
2023/03/08 00:48:59;;;;;;;1999.90;999.90;;;2.00;1.00;;;;;;4993249;28;20042;-93
2023/03/08 00:51:25;;;;;;;1955.53;198.53;;;2.00;99.90;;;;;;4992569;28;20356;-93
2023/03/08 00:53:51;;;;;;;1999.90;999.90;;;;;;;;;;4992775;28;20038;-93
2023/03/08 00:56:17;;;;;;;1999.90;999.90;;;1.40;1.00;;;;;;4994554;28;20050;-93
2023/03/08 00:58:43;;;;;;;1999.90;999.90;;;;;;;;;;4992023;28;20172;-92
2023/03/08 01:01:14;;;;;;;1543.77;685.23;;;1.60;1.00;;;;;;4995413;28;20045;-92
2023/03/08 01:03:40;;;;;;;1999.90;999.90;;;;;;;;;;4993041;28;20046;-91
2023/03/08 01:06:09;;;;;;;1999.90;999.90;;;0.90;1.00;;;;;;4993508;28;20034;-92
2023/03/08 01:08:35;;;;;;;1999.90;999.90;;;1.90;95.80;;;;;;4992972;28;20064;-91
2023/03/08 01:11:01;;;;;;;1999.90;999.90;;;3.10;99.90;;;;;;4995044;28;20471;-92
2023/03/08 01:13:30;;;;;;;1999.90;999.90;;;1.80;1.00;;;;;;5002008;28;20126;-92
2023/03/08 01:15:56;;;;;;;1999.90;999.90;;;2.40;91.20;;;;;;4988128;28;20062;-91
2023/03/08 01:18:22;;;;;;;1999.90;999.90;;;1.80;1.00;;;;;;4992038;28;20118;-92
2023/03/08 01:20:59;;;;;;;1999.90;999.90;;;1.20;99.90;;;;;;4989976;28;20049;-91
2023/03/08 01:23:25;;;;;;;1999.90;999.90;;;1.30;99.90;;;;;;4988839;28;20054;-93
2023/03/08 01:26:06;;;;;;;1999.90;999.90;;;2.20;8.70;;;;;;4988229;28;20053;-91
2023/03/08 01:28:35;;;;;;;1999.90;999.90;;;2.20;99.90;;;;;;4991877;28;20078;-93
2023/03/08 01:31:06;;;;;;;1999.90;999.90;;;1.40;98.10;;;;;;4993380;28;20487;-93
2023/03/08 01:33:45;;;;;;;1999.90;747.97;;;0.80;99.90;;;;;;4991105;28;20568;-92
2023/03/08 01:36:14;;;;;;;1999.90;999.90;;;1.50;33.20;;;;;;4985478;28;20042;-92
2023/03/08 01:38:40;;;;;;;1999.90;999.90;;;1.20;1.00;;;;;;4989690;28;20550;-92
2023/03/08 01:41:11;;;;;;;1999.90;999.90;;;2.90;1.00;;;;;;4987127;28;20054;-92
2023/03/08 01:43:38;;;;;;;1999.90;999.90;;;2.90;1.00;;;;;;4993856;28;20134;-92
2023/03/08 01:46:13;;;;;;;1999.90;999.90;;;0.90;1.00;;;;;;4990379;28;20046;-92
2023/03/08 01:48:44;;;;;;;1999.90;999.90;;;1.60;14.30;;;;;;4980710;28;20054;-92
2023/03/08 01:51:13;;;;;;;1999.90;999.90;;;2.20;99.90;;;;;;4992460;28;20039;-93
2023/03/08 01:53:41;;;;;;;1999.90;999.90;;;4.70;1.00;;;;;;4992507;28;20073;-92
2023/03/08 01:56:10;;;;;;;1999.90;999.90;;;0.40;99.90;;;;;;4992520;28;20096;-93
2023/03/08 01:58:37;;;;;;;1999.90;999.90;;;2.60;99.90;;;;;;4979538;28;20146;-93
2023/03/08 02:01:03;;;;;;;1999.90;999.90;;;4.60;99.90;;;;;;4991091;28;20117;-92
2023/03/08 02:03:29;;;;;;;1999.90;999.90;;;2.00;99.90;;;;;;4973352;28;20117;-92
2023/03/08 02:05:55;;;;;;;1999.90;999.90;;;-0.10;99.90;;;;;;4993332;28;20046;-93
2023/03/08 02:08:21;;;;;;;1999.90;999.90;;;0.60;99.90;;;;;;4991492;28;20415;-92
2023/03/08 02:10:49;;;;;;;1999.90;999.90;;;3.90;87.30;;;;;;4974248;28;20049;-92
2023/03/08 02:13:15;;;;;;;1999.90;999.90;;;2.20;47.80;;;;;;4989259;28;20112;-91
2023/03/08 02:15:41;;;;;;;1999.90;999.90;;;1.80;64.50;;;;;;4989533;28;20057;-92
2023/03/08 02:18:07;;;;;;;1999.90;999.90;;;1.80;1.00;;;;;;4987729;28;20034;-93
2023/03/08 02:20:35;;;;;;;1999.90;999.90;;;3.30;99.90;;;;;;4989221;28;20047;-92
2023/03/08 02:23:14;;;;;;;1999.90;999.90;;;1.10;70.90;;;;;;4991088;28;20616;-91
2023/03/08 02:25:48;;;;;;;1999.90;999.90;;;1.40;99.90;;;;;;4990293;28;20038;-92
2023/03/08 02:28:14;;;;;;;1999.90;999.90;;;;;;;;;;4993161;28;20039;-91
2023/03/08 02:30:40;;;;;;;1759.33;697.37;;;0.90;1.00;;;;;;4989261;28;20053;-92
2023/03/08 02:33:06;;;;;;;1999.90;999.90;;;1.70;1.00;;;;;;4994530;28;20445;-90
2023/03/08 02:35:32;;;;;;;1999.90;999.90;;;;;;;;;;4982295;28;20156;-91
2023/03/08 02:37:58;;;;;;;1999.90;999.90;;;;;;;;;;4992311;28;20053;-91
2023/03/08 02:40:24;;;;;;;1999.90;999.90;;;0.00;1.00;;;;;;4993369;28;20050;-92
2023/03/08 02:42:50;;;;;;;1999.90;999.90;;;1.90;1.00;;;;;;4996360;28;20054;-94
2023/03/08 02:45:15;;;;;;;1999.90;999.90;;;1.40;1.00;;;;;;4995628;28;20034;-93
2023/03/08 02:47:41;;;;;;;1999.90;999.90;;;2.10;1.00;;;;;;4977149;28;20483;-94
2023/03/08 02:50:08;;;;;;;1999.90;999.90;;;3.30;1.00;;;;;;4994865;28;20415;-94
2023/03/08 02:52:34;;;;;;;1999.90;999.90;;;;;;;;;;4992222;28;20042;-94
2023/03/08 02:54:59;;;;;;;1999.90;999.90;;;1.60;99.90;;;;;;4988529;28;20660;-94
2023/03/08 02:57:26;;;;;;;1999.90;999.90;;;;;;;;;;4996169;28;20042;-90
2023/03/08 02:59:52;;;;;;;1999.90;999.90;;;;;;;;;;5005069;28;20097;-90
2023/03/08 03:02:17;;;;;;;1999.90;999.90;;;1.80;99.90;;;;;;4988355;28;20039;-94
2023/03/08 03:04:43;;;;;;;1999.90;999.90;;;;;;;;;;4992413;28;20134;-91
2023/03/08 03:07:09;;;;;;;1999.90;999.90;;;;;;;;;;4977913;28;20049;-94
2023/03/08 03:09:35;;;;;;;1999.90;999.90;;;0.90;99.90;;;;;;4994855;28;20055;-92
2023/03/08 03:12:03;;;;;;;1999.90;999.90;;;1.10;99.90;;;;;;4995462;28;20054;-92
2023/03/08 03:14:29;;;;;;;1999.90;999.90;;;1.10;4.90;;;;;;4994692;28;20046;-94
2023/03/08 03:16:55;;;;;;;1999.90;999.90;;;1.40;8.70;;;;;;4960992;28;20172;-94
2023/03/08 03:19:21;;;;;;;1999.90;999.90;;;;;;;;;;4994556;28;20108;-94
2023/03/08 03:21:47;;;;;;;1999.90;999.90;;;0.80;84.00;;;;;;4976747;28;20039;-94
2023/03/08 03:24:13;;;;;;;1999.90;999.90;;;0.90;99.90;;;;;;4994453;28;20073;-94
2023/03/08 03:26:39;;;;;;;1999.90;999.90;;;1.10;48.00;;;;;;4992829;28;20475;-94
2023/03/08 03:29:04;;;;;;;1999.90;999.90;;;1.30;4.80;;;;;;4978428;28;20057;-94
2023/03/08 03:31:30;;;;;;;1999.90;999.90;;;;;;;;;;4994142;28;20048;-93
2023/03/08 03:33:56;;;;;;;1999.90;999.90;;;;;;;;;;4986223;28;20049;-92
2023/03/08 03:36:22;;;;;;;1999.90;999.90;;;1.30;6.00;;;;;;4977650;28;20050;-93
2023/03/08 03:38:49;;;;;;;1999.90;999.90;;;1.50;1.00;;;;;;4994712;28;20105;-93
2023/03/08 03:41:17;;;;;;;1999.90;999.90;;;1.80;8.10;;;;;;4995811;28;20046;-93
2023/03/08 03:43:47;;;;;;;1999.90;999.90;;;3.70;1.00;;;;;;4996438;28;20479;-89
2023/03/08 03:46:16;;;;;;;1999.90;999.90;;;1.00;30.40;;;;;;5000987;28;20054;-90
2023/03/08 03:48:42;;;;;;;1999.90;999.90;;;1.40;1.00;;;;;;4996914;28;20050;-90
2023/03/08 03:51:16;;;;;;;1999.90;999.90;;;1.60;91.40;;;;;;4996415;28;20112;-93
2023/03/08 03:53:42;;;;;;;1999.90;999.90;;;0.20;18.00;;;;;;4992916;28;20053;-92
2023/03/08 03:56:19;;;;;;;1999.90;999.90;;;0.90;1.00;;;;;;4994714;28;20047;-92
2023/03/08 03:58:46;;;;;;;1999.90;999.90;;;1.10;1.00;;;;;;4994155;28;20053;-92
2023/03/08 04:01:19;;;;;;;1999.90;999.90;;;1.20;1.00;;;;;;4993962;28;20050;-91
2023/03/08 04:03:46;;;;;;;1999.90;999.90;;;0.50;1.00;;;;;;4993798;28;20053;-91
2023/03/08 04:06:26;;;;;;;1999.90;999.90;;;1.10;1.00;;;;;;4994237;28;20053;-91
2023/03/08 04:09:16;;;;;;;1999.90;999.90;;;1.00;1.00;;;;;;4992585;28;20529;-91
2023/03/08 04:11:42;;;;;;;1999.90;999.90;;;0.60;1.00;;;;;;4985332;28;20502;-91
2023/03/08 04:14:08;;;;;;;1510.13;442.47;;;1.70;1.00;;;;;;4993100;28;20057;-90
2023/03/08 04:16:38;;;;;;;1999.90;999.90;;;0.90;99.90;;;;;;4976461;28;20122;-92
2023/03/08 04:19:08;;;;;;;1999.90;999.90;;;0.90;99.90;;;;;;4967632;28;20376;-90
2023/03/08 04:21:34;;;;;;;1999.90;999.90;;;0.20;1.00;;;;;;4992870;28;20078;-91
2023/03/08 04:24:00;;;;;;;1999.90;999.90;;;-0.50;99.90;;;;;;4991080;28;20070;-91
2023/03/08 04:26:26;;;;;;;1999.90;999.90;;;1.10;99.90;;;;;;4992989;28;20495;-91
2023/03/08 04:28:52;;;;;;;1999.90;999.90;;;2.10;99.90;;;;;;4993646;28;20082;-90
2023/03/08 04:31:20;;;;;;;1999.90;999.90;;;1.90;99.90;;;;;;4976924;28;20069;-91
2023/03/08 04:33:47;;;;;;;1999.90;999.90;;;1.40;99.90;;;;;;4976676;28;20078;-91
2023/03/08 04:36:14;;;;;;;1999.90;999.90;;;;;;;;;;4992044;28;20120;-90
2023/03/08 04:38:40;;;;;;;1999.90;999.90;;;;;;;;;;4993135;28;20050;-91
2023/03/08 04:41:13;;;;;;;1999.90;999.90;;;;;;;;;;4992680;28;20042;-91
2023/03/08 04:43:42;;;;;;;1999.90;999.90;;;0.70;99.90;;;;;;4991636;28;20058;-91
2023/03/08 04:46:08;;;;;;;1999.90;999.90;;;2.30;99.90;;;;;;4993407;28;20054;-91
2023/03/08 04:48:34;;;;;;;1999.90;999.90;;;0.70;99.90;;;;;;4992262;28;20052;-90
2023/03/08 04:51:01;;;;;;;1999.90;999.90;;;2.40;99.90;;;;;;4993727;28;20117;-91
2023/03/08 04:53:28;;;;;;;1999.90;999.90;;;0.50;99.90;;;;;;4993188;28;20073;-91
2023/03/08 04:55:55;;;;;;;1999.90;999.90;;;1.70;99.90;;;;;;4992473;28;20129;-91
2023/03/08 04:58:21;;;;;;;1999.90;999.90;;;;;;;;;;4995055;28;20045;-91
2023/03/08 05:00:47;;;;;;;1999.90;999.90;;;;;;;;;;4977766;28;20422;-91
2023/03/08 05:03:13;;;;;;;1999.90;999.90;;;;;;;;;;4992783;28;20042;-91
2023/03/08 05:05:50;;;;;;;1999.90;999.90;;;0.70;99.90;;;;;;4972030;28;20042;-89
2023/03/08 05:08:17;;;;;;;1999.90;999.90;;;1.50;99.90;;;;;;4989641;28;20046;-90
2023/03/08 05:10:57;;;;;;;1999.90;999.90;;;1.30;99.90;;;;;;4991477;28;20085;-90
2023/03/08 05:13:27;;;;;;;1999.90;999.90;;;1.90;99.90;;;;;;4992384;28;20100;-89
2023/03/08 05:15:53;;;;;;;1999.90;999.90;;;1.90;99.90;;;;;;4990841;28;20125;-90
2023/03/08 05:18:19;;;;;;;1999.90;999.90;;;;;;;;;;4977220;28;20042;-90
2023/03/08 05:20:53;;;;;;;1999.90;999.90;;;1.70;99.90;;;;;;4992775;28;20407;-89
2023/03/08 05:23:19;;;;;;;1999.90;999.90;;;;;;;;;;4993539;28;20061;-90
2023/03/08 05:25:45;;;;;;;1999.90;999.90;;;;;;;;;;4990259;28;20506;-89
2023/03/08 05:28:14;;;;;;;1999.90;999.90;;;3.50;97.30;;;;;;4990558;28;20042;-88
2023/03/08 05:30:43;;;;;;;1999.90;999.90;;;;;;;;;;4989889;28;20038;-93
2023/03/08 05:33:09;;;;;;;1999.90;999.90;;;;;;;;;;4972969;28;20046;-90
2023/03/08 05:35:35;;;;;;;1999.90;999.90;;;0.80;22.90;;;;;;4955077;28;20050;-91
2023/03/08 05:38:01;;;;;;;1999.90;999.90;;;;;;;;;;4983223;28;20053;-91
2023/03/08 05:40:28;;;;;;;1999.90;999.90;;;;;;;;;;4983907;28;20051;-90
2023/03/08 05:42:56;;;;;;;1999.90;999.90;;;-0.10;1.00;;;;;;4993091;28;20060;-91
2023/03/08 05:45:22;;;;;;;1999.90;739.73;;;;;;;;;;4991289;28;20038;-90
2023/03/08 05:47:48;;;;;;;1999.90;999.90;;;;;;;;;;4986305;28;20042;-90
2023/03/08 05:50:17;;;;;;;1755.73;709.27;;;0.00;99.90;;;;;;5001529;28;20066;-90
2023/03/08 05:52:44;;;;;;;1038.37;369.77;;;;;;;;;;4992817;28;20125;-90
2023/03/08 05:55:09;;;;;;;1999.90;999.90;;;0.00;99.90;;;;;;4989371;28;20403;-89
2023/03/08 05:57:35;;;;;;;1999.90;999.90;;;1.60;99.90;;;;;;4992258;28;20046;-89
2023/03/08 06:00:03;;;;;;;1999.90;999.90;;;0.60;99.90;;;;;;4986996;28;20057;-90
2023/03/08 06:02:30;;;;;;;1999.90;999.90;;;;;;;;;;4976377;28;20140;-89
2023/03/08 06:04:56;;;;;;;1999.90;999.90;;;-0.80;99.90;;;;;;4986972;28;20578;-90
2023/03/08 06:07:22;;;;;;;1999.90;999.90;;;;;;;;;;4990641;28;20108;-89
2023/03/08 06:09:50;;;;;;;1999.90;999.90;;;3.00;99.90;;;;;;4991393;28;20099;-89
2023/03/08 06:12:16;;;;;;;;;;;0.90;99.90;;;;;;4993925;28;20399;-89
2023/03/08 06:14:41;;;;;;;1999.90;999.90;;;2.70;99.90;;;;;;4995234;28;19921;-88
2023/03/08 06:17:07;;;;;;;1999.90;999.90;;;;;;;;;;4994602;28;20104;-88
2023/03/08 06:19:33;;;;;;;1999.90;999.90;;;2.10;99.90;;;;;;4990183;28;20054;-88
2023/03/08 06:21:59;;;;;;;1999.90;999.90;;;1.00;99.90;;;;;;4989965;28;20053;-88
2023/03/08 06:24:27;;;;;;;1999.90;999.90;;;0.90;99.90;;;;;;4994552;28;20482;-88
2023/03/08 06:26:54;;;;;;;;;;;1.00;99.90;;;;;;4988757;28;20049;-90
2023/03/08 06:29:20;;;;;;;1999.90;999.90;;;;;;;;;;4993808;28;19917;-88
2023/03/08 06:31:46;;;;;;;1999.90;999.90;;;;;;;;;;4992599;28;20045;-90
2023/03/08 06:34:13;;;;;;;1999.90;999.90;;;;;;;;;;4990317;28;20057;-87
2023/03/08 06:36:39;;;;;;;1999.90;999.90;;;;;;;;;;4979766;28;20101;-88
2023/03/08 06:39:05;;;;;;;1999.90;999.90;;;2.70;1.00;;;;;;4992782;28;20456;-87
2023/03/08 06:41:32;;;;;;;1999.90;999.90;;;1.10;1.00;;;;;;4961172;28;20423;-87
2023/03/08 06:43:58;;;;;;;1999.90;999.90;;;;;;;;;;4985554;28;20058;-88
2023/03/08 06:46:24;;;;;;;1999.90;999.90;;;0.70;99.90;;;;;;4995047;28;20046;-87
2023/03/08 06:48:50;;;;;;;1999.90;999.90;;;1.30;99.90;;;;;;4992427;28;20145;-89
2023/03/08 06:51:17;;;;;;;1999.90;999.90;;;0.60;99.90;;;;;;4993481;28;20064;-87
2023/03/08 06:53:43;;;;;;;1999.90;999.90;;;1.20;1.00;;;;;;4994089;28;20487;-88
2023/03/08 06:56:12;;;;;;;1999.90;999.90;;;0.80;1.00;;;;;;4994181;28;20051;-87
2023/03/08 06:58:38;;;;;;;1999.90;999.90;;;0.80;64.10;;;;;;4977790;28;20120;-88
2023/03/08 07:01:04;;;;;;;1999.90;999.90;;;0.40;99.90;;;;;;4992257;28;20499;-87
2023/03/08 07:03:30;;;;;;;1999.90;999.90;;;0.60;1.00;;;;;;4995812;28;20050;-87
2023/03/08 07:06:06;;;;;;;1999.90;999.90;;;2.00;99.90;;;;;;4994713;28;20046;-87
2023/03/08 07:08:32;;;;;;;1999.90;999.90;;;1.80;99.90;;;;;;4995071;28;20487;-88
2023/03/08 07:10:58;;;;;;;1999.90;999.90;;;1.70;99.90;;;;;;4992102;28;20085;-88
2023/03/08 07:13:24;;;;;;;1999.90;999.90;;;;;;;;;;4978855;28;20118;-88
2023/03/08 07:15:51;;;;;;;1999.90;999.90;;;;;;;;;;4992942;28;20046;-88
2023/03/08 07:18:18;;;;;;;1999.90;999.90;;;3.30;1.00;;;;;;4978799;28;20056;-88
2023/03/08 07:20:44;;;;;;;1999.90;999.90;;;2.50;1.00;;;;;;4995448;28;20487;-88
2023/03/08 07:23:10;;;;;;;1999.90;999.90;;;2.60;99.90;;;;;;4994384;28;20054;-89
2023/03/08 07:25:39;;;;;;;1999.90;999.90;;;3.70;99.90;;;;;;4996455;28;20061;-89
2023/03/08 07:28:04;;;;;;;1999.90;999.90;;;2.70;99.90;;;;;;4995034;28;20133;-89
2023/03/08 07:30:30;;;;;;;1999.90;999.90;;;2.00;99.90;;;;;;4994239;28;20129;-89
2023/03/08 07:32:56;;;;;;;1999.90;999.90;;;2.40;99.90;;;;;;4992840;28;20034;-88
2023/03/08 07:35:22;;;;;;;1999.90;999.90;;;5.70;99.90;;;;;;4985872;28;20050;-89
2023/03/08 07:37:48;;;;;;;1999.90;999.90;;;;;;;;;;4993161;28;20050;-88
2023/03/08 07:40:15;;;;;;;1999.90;999.90;;;3.10;99.90;;;;;;4993369;28;20096;-88
2023/03/08 07:42:41;;;;;;;1999.90;999.90;;;0.60;99.90;;;;;;4994023;28;20054;-89
2023/03/08 07:45:08;;;;;;;1999.90;999.90;;;;;;;;;;4990042;28;20066;-89
2023/03/08 07:47:34;;;;;;;1999.90;999.90;;;1.50;99.90;;;;;;4992586;28;20061;-88
2023/03/08 07:49:59;;;;;;;1999.90;999.90;;;3.20;99.90;;;;;;4993950;28;20468;-89
2023/03/08 07:52:29;;;;;;;1999.90;999.90;;;2.10;99.90;;;;;;4994056;28;20129;-89
2023/03/08 07:54:56;;;;;;;1999.90;999.90;;;;;;;;;;4992647;28;20112;-88
2023/03/08 07:57:21;;;;;;;1999.90;999.90;;;2.40;99.90;;;;;;4994875;28;20390;-89
2023/03/08 07:59:48;;;;;;;1999.90;999.90;;;0.70;99.90;;;;;;4977636;28;20054;-88
2023/03/08 08:02:14;;;;;;;1999.90;999.90;;;4.00;99.90;;;;;;4994091;28;20073;-88
2023/03/08 08:04:41;;;;;;;1999.90;999.90;;;;;;;;;;4992263;28;20050;-88
2023/03/08 08:07:11;;;;;;;1999.90;999.90;;;2.60;99.90;;;;;;4992182;28;20053;-88
2023/03/08 08:09:37;;;;;;;1999.90;999.90;;;3.40;99.90;;;;;;4993251;28;20046;-89
2023/03/08 08:12:04;;;;;;;1999.90;999.90;;;3.30;99.90;;;;;;4994314;28;20051;-88
2023/03/08 08:14:30;;;;;;;1999.90;999.90;;;3.50;99.90;;;;;;4993949;28;20050;-88
2023/03/08 08:16:56;;;;;;;1999.90;999.90;;;6.50;99.90;;;;;;4992366;28;20058;-88
2023/03/08 08:19:22;;;;;;;1999.90;999.90;;;;;;;;;;4976112;28;20136;-88
2023/03/08 08:21:48;;;;;;;1999.90;999.90;;;3.70;99.90;;;;;;4976649;28;20058;-88
2023/03/08 08:24:14;;;;;;;1999.90;999.90;;;;;;;;;;4990060;28;20096;-88
2023/03/08 08:26:40;;;;;;;1999.90;999.90;;;4.00;99.90;;;;;;4991230;28;20042;-88
2023/03/08 08:29:06;;;;;;;1999.90;999.90;;;;;;;;;;4991865;28;20384;-88
2023/03/08 08:31:32;;;;;;;1999.90;999.90;;;3.40;99.90;;;;;;4993335;28;20518;-88
2023/03/08 08:33:59;;;;;;;1999.90;999.90;;;3.80;99.90;;;;;;4974940;28;20060;-88
2023/03/08 08:36:25;;;;;;;1999.90;999.90;;;;;;;;;;4976234;28;20054;-88
2023/03/08 08:38:51;;;;;;;1999.90;999.90;;;3.70;99.90;;;;;;4991494;28;20501;-88
2023/03/08 08:41:19;;;;;;;1999.90;999.90;;;4.20;99.90;;;;;;4991187;28;20104;-88
2023/03/08 08:43:46;;;;;;;1999.90;999.90;;;4.60;99.90;;;;;;4993643;28;20483;-88
2023/03/08 08:46:13;;;;;;;1999.90;999.90;;;7.40;99.90;;;;;;4989771;28;20501;-88
2023/03/08 08:48:39;;;;;;;1999.90;999.90;;;6.90;99.90;;;;;;4992654;28;20046;-88
2023/03/08 08:51:06;;;;;;;1999.90;999.90;;;5.50;99.90;;;;;;4992639;28;20484;-88
2023/03/08 08:53:32;;;;;;;1999.90;999.90;;;4.70;99.90;;;;;;4976864;28;20050;-88
2023/03/08 08:55:58;;;;;;;1999.90;999.90;;;4.70;99.90;;;;;;4976816;28;20038;-88
2023/03/08 08:58:24;;;;;;;1999.90;999.90;;;5.50;99.90;;;;;;4992710;28;20059;-88
2023/03/08 09:00:50;;;;;;;1999.90;999.90;;;;;;;;;;4991948;28;20054;-88
2023/03/08 09:03:16;;;;;;;1999.90;999.90;;;5.50;99.90;;;;;;4991909;28;20053;-88
2023/03/08 09:05:43;;;;;;;1999.90;999.90;;;7.10;99.90;;;;;;4994013;28;20407;-88
2023/03/08 09:08:10;;;;;;;1999.90;999.90;;;6.30;99.90;;;;;;4992372;28;20050;-87
2023/03/08 09:10:38;;;;;;;1999.90;999.90;;;7.10;99.90;;;;;;4992153;28;20050;-88
2023/03/08 09:13:04;;;;;;;;;;;6.70;99.90;;;;;;4994566;28;20052;-87
2023/03/08 09:15:31;;;;;;;1999.90;999.90;;;;;;;;;;4993893;28;19922;-89
2023/03/08 09:17:57;;;;;;;1999.90;999.90;;;;;;;;;;4991670;28;20039;-88
2023/03/08 09:20:23;;;;;;;1999.90;999.90;;;;;;;;;;4992729;28;20496;-88
2023/03/08 09:22:49;;;;;;;1999.90;999.90;;;;;;;;;;4975992;28;20050;-89
2023/03/08 09:25:15;;;;;;;1999.90;999.90;;;7.10;99.90;;;;;;4992360;28;20440;-89
2023/03/08 09:27:41;;;;;;;1999.90;999.90;;;7.10;99.90;;;;;;4991638;28;20125;-88
2023/03/08 09:30:12;;;;;;;1999.90;999.90;;;6.70;99.90;;;;;;4989453;28;20096;-88
2023/03/08 09:32:38;;;;;;;1999.90;999.90;;;6.70;99.90;;;;;;4989078;28;20049;-88
2023/03/08 09:35:04;;;;;;;1999.90;999.90;;;6.70;99.90;;;;;;4977722;28;20047;-88
2023/03/08 09:37:31;;;;;;;1999.90;999.90;;;;;;;;;;4993680;28;20053;-88
2023/03/08 09:39:57;;;;;;;1999.90;999.90;;;;;;;;;;4995449;28;20480;-89
2023/03/08 09:42:26;;;;;;;1999.90;999.90;;;6.90;99.90;;;;;;4995539;28;20153;-89
2023/03/08 09:45:04;;;;;;;1999.90;999.90;;;8.30;1.00;;;;;;4996140;28;20079;-89
2023/03/08 09:47:58;;;;;;;1999.90;999.90;;;6.90;99.90;;;;;;4996084;28;20507;-89
2023/03/08 09:50:38;;;;;;;1999.90;999.90;;;6.30;54.00;;;;;;4997043;28;20105;-89
2023/03/08 09:53:23;;;;;;;1999.90;999.90;;;6.80;1.00;;;;;;4994048;28;20050;-88
2023/03/08 09:55:54;;;;;;;1999.90;999.90;;;6.70;51.80;;;;;;4978593;28;20050;-88
2023/03/08 09:58:23;;;;;;;1999.90;999.90;;;7.00;99.90;;;;;;4991021;28;20190;-89
2023/03/08 10:00:49;;;;;;;1999.90;999.90;;;;;;;;;;4992707;28;20129;-89
2023/03/08 10:03:53;;;;;;;1999.90;999.90;;;6.90;8.50;;;;;;4993160;28;20050;-88
2023/03/08 10:06:25;;;;;;;1999.90;999.90;;;7.20;99.90;;;;;;4975175;28;20116;-89
2023/03/08 10:09:19;;;;;;;1999.90;590.13;;;7.90;99.90;;;;;;4995808;28;20451;-89
2023/03/08 10:12:09;;;;;;;1999.90;999.90;;;10.40;1.00;;;;;;4993306;28;20050;-89
2023/03/08 10:14:39;;;;;;;1999.90;999.90;;;7.60;99.90;;;;;;4994758;28;20061;-89
2023/03/08 10:17:20;;;;;;;1999.90;999.90;;;7.60;99.90;;;;;;4994671;28;20046;-89
2023/03/08 10:19:55;;;;;;;1999.90;999.90;;;7.10;99.90;;;;;;4995143;28;20479;-89
2023/03/08 10:22:30;;;;;;;1999.90;999.90;;;7.20;1.00;;;;;;4995108;28;20442;-89
2023/03/08 10:25:27;;;;;;;1999.90;999.90;;;7.40;99.90;;;;;;4994207;28;20441;-89
2023/03/08 10:27:55;;;;;;;1999.90;999.90;;;7.40;99.90;;;;;;4994615;28;20065;-89
2023/03/08 10:30:33;;;;;;;1999.90;999.90;;;6.30;95.30;;;;;;4993885;28;20050;-89
2023/03/08 10:33:04;;;;;;;1999.90;999.90;;;7.40;99.90;;;;;;4995596;28;20115;-89
2023/03/08 10:35:33;;;;;;;1999.90;999.90;;;7.50;99.90;;;;;;4991174;28;20089;-88
2023/03/08 10:37:59;;;;;;;1999.90;999.90;;;7.80;99.90;;;;;;4994120;28;20054;-87
2023/03/08 10:40:25;;;;;;;1999.90;999.90;;;6.60;99.90;;;;;;4993870;28;20100;-85
2023/03/08 10:42:58;;;;;;;1999.90;999.90;;;7.70;99.90;;;;;;4995600;28;20145;-87
2023/03/08 10:45:27;;;;;;;1999.90;999.90;;;9.00;99.90;;;;;;4995155;28;20042;-86
2023/03/08 10:48:02;;;;;;;1999.90;999.90;;;7.60;96.50;;;;;;4991548;28;20070;-87
2023/03/08 10:50:31;;;;;;;1999.90;999.90;;;8.10;69.30;;;;;;4994680;28;20064;-86
2023/03/08 10:53:16;;;;;;;1999.90;767.58;;;8.00;1.00;;;;;;4993579;28;20057;-86
2023/03/08 10:55:47;;;;;;;1999.90;711.63;;;7.90;1.00;;;;;;4995707;28;20050;-87
2023/03/08 10:58:36;;;;;;;1999.90;868.80;;;8.10;1.00;;;;;;4995888;28;20121;-87
2023/03/08 11:01:21;;;;;;;1999.90;999.90;;;8.20;1.00;;;;;;4979034;28;20116;-87
2023/03/08 11:03:59;;;;;;;1999.90;999.75;;;8.30;1.00;;;;;;4995129;28;20038;-87
2023/03/08 11:06:25;;;;;;;;;;;8.60;99.90;;;;;;4976942;28;20051;-87
2023/03/08 11:08:54;;;;;;;1999.90;712.17;;;9.00;99.90;;;;;;4993050;28;20270;-87
2023/03/08 11:11:20;;;;;;;1999.90;999.90;;;9.10;99.90;;;;;;4978438;28;20125;-86
2023/03/08 11:13:48;;;;;;;1999.90;902.10;;;9.00;99.90;;;;;;4994176;28;20133;-87
2023/03/08 11:16:14;;;;;;;1999.90;927.22;;;;;;;;;;4996271;28;20050;-87
2023/03/08 11:19:04;;;;;;;1999.90;953.60;;;9.20;99.90;;;;;;4976901;28;20055;-87
2023/03/08 11:21:47;;;;;;;1999.90;999.90;;;9.40;99.90;;;;;;4995749;28;20122;-87
2023/03/08 11:24:20;;;;;;;1999.90;999.90;;;9.60;99.90;;;;;;4993346;28;20050;-87
2023/03/08 11:26:48;;;;;;;1999.90;999.90;;;9.50;99.90;;;;;;4995228;28;20498;-87
2023/03/08 11:29:58;;;;;;;1999.90;954.97;;;9.20;99.90;;;;;;4992603;28;20114;-86
2023/03/08 11:32:51;;;;;;;1999.90;999.90;;;9.60;99.90;;;;;;4989858;28;20093;-86
2023/03/08 11:35:32;;;;;;;1999.90;999.90;;;9.60;99.90;;;;;;4994708;28;20046;-86
2023/03/08 11:38:06;;;;;;;1999.90;999.90;;;9.60;99.90;;;;;;4995121;28;20050;-86
2023/03/08 11:40:41;;;;;;;1999.90;999.90;;;9.40;99.90;;;;;;4992444;28;20054;-86
2023/03/08 11:43:39;;;;;;;1999.90;999.90;;;9.30;99.90;;;;;;4994941;28;20046;-87
2023/03/08 11:46:36;;;;;;;1999.90;999.90;;;9.20;99.90;;;;;;4993097;28;20047;-86
2023/03/08 11:49:20;;;;;;;1999.90;999.90;;;9.30;99.90;;;;;;4994279;28;20061;-87
2023/03/08 11:51:53;;;;;;;1999.90;999.90;;;9.30;99.90;;;;;;4994540;28;20058;-87
2023/03/08 11:54:25;;;;;;;1999.90;999.90;;;9.20;99.90;;;;;;4994205;28;20039;-86
2023/03/08 11:56:56;;;;;;;1999.90;937.38;;;9.10;99.90;;;;;;4994839;28;20049;-87
2023/03/08 11:59:55;;;;;;;1999.90;999.90;;;9.10;99.90;;;;;;4993381;28;20055;-87
2023/03/08 12:02:27;;;;;;;1999.90;999.90;;;8.60;99.90;;;;;;4988824;28;20108;-87
2023/03/08 12:05:14;;;;;;;1999.90;999.90;;;9.80;99.90;;;;;;4988462;28;20042;-87
2023/03/08 12:07:49;;;;;;;1999.90;999.75;;;8.60;99.90;;;;;;4983260;28;20068;-88
2023/03/08 12:10:50;;;;;;;1999.90;999.90;;;8.70;99.90;;;;;;4995454;28;20046;-88
2023/03/08 12:13:19;;;;;;;1999.90;999.90;;;8.70;99.90;;;;;;4987874;28;20098;-87
2023/03/08 12:15:52;;;;;;;1999.90;999.90;;;8.40;99.90;;;;;;4992931;28;20050;-87
2023/03/08 12:18:36;;;;;;;1999.90;999.90;;;9.40;99.90;;;;;;4992562;28;20050;-87
2023/03/08 12:21:39;;;;;;;1999.90;930.45;;;8.70;99.90;;;;;;4993659;28;20510;-87
2023/03/08 12:24:34;;;;;;;1999.90;999.90;;;7.30;99.90;;;;;;4990784;28;20384;-87
2023/03/08 12:27:04;;;;;;;1999.90;999.90;;;8.60;99.90;;;;;;4979979;28;20102;-88
2023/03/08 12:30:08;;;;;;;1999.90;999.90;;;9.90;99.90;;;;;;4992352;28;20046;-87
2023/03/08 12:32:37;;;;;;;1999.90;999.90;;;8.70;99.90;;;;;;4991195;28;20042;-86
2023/03/08 12:35:21;;;;;;;1999.90;999.90;;;8.30;99.90;;;;;;4985393;28;21504;-87
2023/03/08 12:37:57;;;;;;;1999.90;997.05;;;7.90;99.90;;;;;;4988843;28;20078;-87
2023/03/08 12:40:41;;;;;;;1999.90;913.35;;;8.30;99.90;;;;;;4991223;28;20061;-87